createdAt,value
2023-01-20T00:01:28.900Z,40.67
2023-01-20T00:03:57.325Z,49.85
2023-01-20T00:06:27.970Z,56.85
2023-01-20T00:08:57.541Z,47.03
2023-01-20T00:11:25.320Z,40.50
2023-01-20T00:13:57.307Z,36.75
2023-01-20T00:16:25.260Z,46.47
2023-01-20T00:18:52.835Z,39.47
2023-01-20T00:21:20.498Z,49.45
2023-01-20T00:23:48.372Z,38.38
2023-01-20T00:26:18.193Z,51.83
2023-01-20T00:28:45.855Z,31.25
2023-01-20T00:31:13.972Z,43.67
2023-01-20T00:33:41.804Z,51.28
2023-01-20T00:36:09.810Z,43.47
2023-01-20T00:38:36.814Z,55.40
2023-01-20T00:41:04.286Z,50.97
2023-01-20T00:43:31.226Z,51.65
2023-01-20T00:45:58.631Z,55.97
2023-01-20T00:48:25.946Z,42.78
2023-01-20T00:50:52.969Z,45.65
2023-01-20T00:53:19.897Z,38.45
2023-01-20T00:55:46.949Z,31.83
2023-01-20T00:58:14.021Z,37.70
2023-01-20T01:00:41.051Z,34.55
2023-01-20T01:03:08.355Z,48.63
2023-01-20T01:05:35.336Z,48.80
2023-01-20T01:08:02.539Z,30.73
2023-01-20T01:10:29.585Z,51.28
2023-01-20T01:12:56.600Z,36.40
2023-01-20T01:15:23.629Z,54.67
2023-01-20T01:17:50.621Z,51.15
2023-01-20T01:20:17.934Z,40.45
2023-01-20T01:22:45.085Z,41.38
2023-01-20T01:25:12.369Z,40.33
2023-01-20T01:27:39.757Z,34.60
2023-01-20T01:30:07.350Z,47.00
2023-01-20T01:32:34.302Z,36.80
2023-01-20T01:35:01.458Z,40.60
2023-01-20T01:37:30.614Z,34.00
2023-01-20T01:39:57.593Z,46.28
2023-01-20T01:42:26.988Z,29.48
2023-01-20T01:45:12.806Z,39.40
2023-01-20T01:47:46.524Z,35.28
2023-01-20T01:50:26.248Z,54.30
2023-01-20T01:52:55.637Z,41.83
2023-01-20T01:55:27.424Z,40.17
2023-01-20T01:57:56.248Z,47.00
2023-01-20T02:00:23.498Z,44.03
2023-01-20T02:02:51.411Z,47.13
2023-01-20T02:05:22.124Z,40.08
2023-01-20T02:07:49.508Z,39.83
2023-01-20T02:10:17.105Z,41.53
2023-01-20T02:12:49.612Z,30.30
2023-01-20T02:15:17.812Z,39.17
2023-01-20T02:18:17.230Z,40.97
2023-01-20T02:20:58.566Z,48.95
2023-01-20T02:23:47.262Z,35.28
2023-01-20T02:26:53.833Z,39.47
2023-01-20T02:29:33.090Z,44.47
2023-01-20T02:32:31.146Z,41.42
2023-01-20T02:35:07.121Z,37.15
2023-01-20T02:37:42.448Z,34.00
2023-01-20T02:40:17.233Z,38.63
2023-01-20T02:43:00.818Z,51.67
2023-01-20T02:45:46.218Z,47.05
2023-01-20T02:48:28.114Z,41.85
2023-01-20T02:51:14.019Z,33.97
2023-01-20T02:53:51.969Z,29.42
2023-01-20T02:56:23.622Z,36.30
2023-01-20T02:58:55.605Z,31.75
2023-01-20T03:01:33.457Z,33.17
2023-01-20T03:04:04.214Z,39.83
2023-01-20T03:06:36.985Z,39.92
2023-01-20T03:09:09.316Z,42.90
2023-01-20T03:11:41.537Z,40.67
2023-01-20T03:14:12.195Z,33.25
2023-01-20T03:16:40.426Z,44.65
2023-01-20T03:19:08.218Z,42.35
2023-01-20T03:21:35.567Z,26.77
2023-01-20T03:24:05.659Z,38.08
2023-01-20T03:26:33.482Z,27.08
2023-01-20T03:29:06.525Z,36.33
2023-01-20T03:31:38.309Z,30.15
2023-01-20T03:34:11.252Z,27.05
2023-01-20T03:36:40.563Z,41.22
2023-01-20T03:39:07.665Z,45.75
2023-01-20T03:42:07.460Z,25.58
2023-01-20T03:44:59.307Z,25.73
2023-01-20T03:47:38.777Z,38.97
2023-01-20T03:50:11.639Z,36.67
2023-01-20T03:52:49.696Z,44.10
2023-01-20T03:55:24.213Z,26.38
2023-01-20T03:58:09.214Z,36.70
2023-01-20T04:00:44.389Z,36.03
2023-01-20T04:03:19.028Z,27.42
2023-01-20T04:05:48.109Z,35.90
2023-01-20T04:08:17.745Z,36.65
2023-01-20T04:10:47.753Z,39.65
2023-01-20T04:13:16.042Z,23.60
2023-01-20T04:15:44.730Z,24.67
2023-01-20T04:18:14.318Z,44.53
2023-01-20T04:20:42.197Z,33.67
2023-01-20T04:23:16.424Z,38.17
2023-01-20T04:25:43.986Z,35.45
2023-01-20T04:28:10.987Z,31.05
2023-01-20T04:30:38.173Z,30.98
2023-01-20T04:33:05.245Z,29.52
2023-01-20T04:35:32.263Z,40.58
2023-01-20T04:37:59.209Z,25.70
2023-01-20T04:40:26.847Z,30.42
2023-01-20T04:42:53.983Z,28.73
2023-01-20T04:45:21.079Z,32.83
2023-01-20T04:47:48.094Z,28.92
2023-01-20T04:50:30.208Z,36.60
2023-01-20T04:52:58.450Z,25.77
2023-01-20T04:55:27.079Z,35.20
2023-01-20T04:57:54.325Z,38.25
2023-01-20T05:00:21.623Z,16.02
2023-01-20T05:02:48.817Z,42.00
2023-01-20T05:05:18.610Z,38.63
2023-01-20T05:07:45.639Z,31.20
2023-01-20T05:10:13.339Z,22.27
2023-01-20T05:12:41.434Z,43.15
2023-01-20T05:15:08.907Z,37.67
2023-01-20T05:17:36.003Z,25.17
2023-01-20T05:20:03.062Z,29.58
2023-01-20T05:22:33.310Z,37.85
2023-01-20T05:25:00.558Z,28.45
2023-01-20T05:27:27.679Z,37.03
2023-01-20T05:29:54.728Z,22.05
2023-01-20T05:32:21.806Z,43.40
2023-01-20T05:34:48.802Z,42.22
2023-01-20T05:37:18.110Z,43.78
2023-01-20T05:39:45.179Z,34.85
2023-01-20T05:42:12.330Z,39.20
2023-01-20T05:44:39.477Z,35.38
2023-01-20T05:47:06.815Z,36.55
2023-01-20T05:49:33.975Z,43.33
2023-01-20T05:52:03.385Z,36.75
2023-01-20T05:54:30.575Z,33.83
2023-01-20T05:56:57.570Z,52.78
2023-01-20T05:59:24.732Z,42.20
2023-01-20T06:01:51.768Z,41.53
2023-01-20T06:04:19.214Z,42.20
2023-01-20T06:06:46.242Z,32.25
2023-01-20T06:09:13.355Z,33.28
2023-01-20T06:11:40.529Z,32.70
2023-01-20T06:14:07.525Z,28.13
2023-01-20T06:16:34.668Z,43.83
2023-01-20T06:19:01.673Z,31.80
2023-01-20T06:21:28.923Z,25.90
2023-01-20T06:23:55.950Z,43.60
2023-01-20T06:26:22.924Z,31.20
2023-01-20T06:28:50.073Z,37.55
2023-01-20T06:31:17.522Z,40.40
2023-01-20T06:33:44.641Z,34.50
2023-01-20T06:36:14.165Z,34.20
2023-01-20T06:38:41.233Z,32.90
2023-01-20T06:41:10.982Z,25.52
2023-01-20T06:43:42.179Z,48.00
2023-01-20T06:46:14.666Z,33.55
2023-01-20T06:48:42.857Z,28.98
2023-01-20T06:51:13.185Z,27.98
2023-01-20T06:53:41.078Z,43.80
2023-01-20T06:56:10.319Z,39.22
2023-01-20T06:58:37.690Z,26.05
2023-01-20T07:01:08.957Z,40.63
2023-01-20T07:03:37.200Z,37.33
2023-01-20T07:06:27.326Z,31.65
2023-01-20T07:08:56.695Z,40.38
2023-01-20T07:11:25.665Z,28.42
2023-01-20T07:13:52.735Z,30.80
2023-01-20T07:16:19.798Z,37.58
2023-01-20T07:18:51.628Z,29.20
2023-01-20T07:21:19.446Z,41.92
2023-01-20T07:23:46.807Z,23.55
2023-01-20T07:26:20.570Z,29.52
2023-01-20T07:28:48.487Z,25.75
2023-01-20T07:31:18.707Z,39.28
2023-01-20T07:36:14.527Z,27.20
2023-01-20T07:38:41.664Z,36.78
2023-01-20T07:41:16.011Z,29.67
2023-01-20T07:43:44.677Z,28.08
2023-01-20T07:46:12.369Z,33.55
2023-01-20T07:48:39.761Z,42.85
2023-01-20T07:51:09.547Z,27.50
2023-01-20T07:53:40.370Z,26.65
2023-01-20T07:56:33.838Z,33.35
2023-01-20T07:59:00.986Z,40.95
2023-01-20T08:01:30.394Z,35.03
2023-01-20T08:04:00.611Z,36.33
2023-01-20T08:06:28.351Z,36.03
2023-01-20T08:08:58.690Z,27.52
2023-01-20T08:11:26.041Z,30.40
2023-01-20T08:13:53.185Z,46.15
2023-01-20T08:16:20.802Z,30.38
2023-01-20T08:18:48.464Z,32.28
2023-01-20T08:21:34.186Z,28.55
2023-01-20T08:24:04.751Z,34.15
2023-01-20T08:26:32.919Z,32.55
2023-01-20T08:29:09.068Z,35.83
2023-01-20T08:31:37.096Z,27.13
2023-01-20T08:34:04.715Z,32.90
2023-01-20T08:36:34.516Z,36.58
2023-01-20T08:39:04.550Z,34.90
2023-01-20T08:41:34.860Z,33.60
2023-01-20T08:44:04.616Z,29.77
2023-01-20T08:46:32.001Z,28.52
2023-01-20T08:48:59.092Z,25.45
2023-01-20T08:51:31.308Z,37.15
2023-01-20T08:53:58.779Z,35.42
2023-01-20T08:56:26.746Z,31.65
2023-01-20T08:58:54.380Z,31.67
2023-01-20T09:01:26.914Z,36.25
2023-01-20T09:04:05.329Z,31.00
2023-01-20T09:06:40.932Z,32.38
2023-01-20T09:09:08.297Z,26.83
2023-01-20T09:11:36.083Z,26.00
2023-01-20T09:14:04.260Z,33.78
2023-01-20T09:16:31.369Z,36.85
2023-01-20T09:18:58.419Z,39.83
2023-01-20T09:21:25.509Z,34.97
2023-01-20T09:23:52.549Z,38.78
2023-01-20T09:26:34.396Z,22.80
2023-01-20T09:29:09.614Z,36.90
2023-01-20T09:31:39.448Z,26.15
2023-01-20T09:34:06.677Z,33.50
2023-01-20T09:36:33.710Z,37.00
2023-01-20T09:39:19.294Z,32.50
2023-01-20T09:42:19.432Z,25.15
2023-01-20T09:44:56.696Z,34.28
2023-01-20T09:47:31.628Z,28.73
2023-01-20T09:50:29.230Z,27.05
2023-01-20T09:53:06.054Z,31.80
2023-01-20T09:55:48.317Z,34.78
2023-01-20T09:58:30.273Z,30.05
2023-01-20T10:01:08.995Z,38.28
2023-01-20T10:03:58.988Z,34.45
2023-01-20T10:06:34.989Z,24.77
2023-01-20T10:09:17.471Z,34.33
2023-01-20T10:11:47.232Z,28.13
2023-01-20T10:14:43.450Z,32.72
2023-01-20T10:17:16.539Z,31.15
2023-01-20T10:19:58.995Z,35.22
2023-01-20T10:22:40.650Z,27.35
2023-01-20T10:25:15.426Z,32.53
2023-01-20T10:27:53.606Z,31.50
2023-01-20T10:30:23.922Z,32.53
2023-01-20T10:35:32.979Z,31.63
2023-01-20T10:38:00.413Z,22.10
2023-01-20T10:41:08.793Z,26.48
2023-01-20T10:43:36.088Z,32.05
2023-01-20T10:46:21.458Z,35.50
2023-01-20T10:49:25.754Z,32.17
2023-01-20T10:52:05.133Z,31.48
2023-01-20T10:54:48.345Z,22.02
2023-01-20T10:57:16.441Z,32.97
2023-01-20T10:59:47.861Z,35.45
2023-01-20T11:02:29.470Z,29.23
2023-01-20T11:05:02.535Z,29.38
2023-01-20T11:07:33.445Z,21.00
2023-01-20T11:10:22.262Z,33.38
2023-01-20T11:12:53.614Z,25.45
2023-01-20T11:15:28.740Z,22.92
2023-01-20T11:18:14.288Z,19.10
2023-01-20T11:21:07.486Z,31.10
2023-01-20T11:23:57.483Z,35.13
2023-01-20T11:26:31.745Z,19.73
2023-01-20T11:29:04.292Z,22.23
2023-01-20T11:31:37.375Z,27.65
2023-01-20T11:34:24.129Z,28.58
2023-01-20T11:37:12.039Z,29.60
2023-01-20T11:39:58.066Z,26.42
2023-01-20T11:42:36.816Z,20.00
2023-01-20T11:45:20.728Z,30.83
2023-01-20T11:48:02.283Z,31.20
2023-01-20T11:50:58.955Z,31.20
2023-01-20T11:53:28.837Z,21.48
2023-01-20T11:56:18.426Z,29.95
2023-01-20T11:59:02.039Z,27.00
2023-01-20T12:01:49.113Z,23.75
2023-01-20T12:04:46.207Z,31.92
2023-01-20T12:07:38.475Z,32.13
2023-01-20T12:10:17.342Z,26.20
2023-01-20T12:13:02.905Z,30.98
2023-01-20T12:15:33.145Z,23.40
2023-01-20T12:18:13.057Z,24.90
2023-01-20T12:20:54.531Z,21.35
2023-01-20T12:23:46.171Z,25.63
2023-01-20T12:26:15.327Z,20.20
2023-01-20T12:29:05.614Z,20.40
2023-01-20T12:31:33.141Z,21.33
2023-01-20T12:34:03.070Z,21.75
2023-01-20T12:36:57.684Z,20.38
2023-01-20T12:39:29.475Z,28.75
2023-01-20T12:42:14.771Z,22.73
2023-01-20T12:44:53.829Z,24.20
2023-01-20T12:47:23.857Z,23.00
2023-01-20T12:50:09.312Z,28.02
2023-01-20T12:53:02.416Z,23.00
2023-01-20T12:55:37.792Z,21.05
2023-01-20T12:58:15.663Z,22.90
2023-01-20T13:00:54.721Z,21.40
2023-01-20T13:03:39.956Z,26.98
2023-01-20T13:06:37.872Z,27.63
2023-01-20T13:09:19.926Z,18.77
2023-01-20T13:11:49.889Z,26.13
2023-01-20T13:14:43.270Z,29.90
2023-01-20T13:17:21.201Z,20.05
2023-01-20T13:19:51.793Z,25.70
2023-01-20T13:22:20.878Z,25.65
2023-01-20T13:24:53.130Z,22.77
2023-01-20T13:27:28.160Z,22.70
2023-01-20T13:30:00.248Z,16.67
2023-01-20T13:32:35.350Z,24.00
2023-01-20T13:35:24.914Z,26.42
2023-01-20T13:37:57.773Z,22.70
2023-01-20T13:40:36.789Z,18.90
2023-01-20T13:43:22.292Z,27.90
2023-01-20T13:46:09.667Z,18.15
2023-01-20T13:48:43.334Z,16.20
2023-01-20T13:51:16.474Z,21.65
2023-01-20T13:53:43.656Z,19.38
2023-01-20T13:56:28.373Z,25.05
2023-01-20T13:58:58.341Z,25.83
2023-01-20T14:01:26.587Z,26.38
2023-01-20T14:04:19.080Z,18.23
2023-01-20T14:06:48.872Z,16.48
2023-01-20T14:09:23.877Z,21.40
2023-01-20T14:11:55.863Z,26.25
2023-01-20T14:14:25.350Z,20.25
2023-01-20T14:16:52.545Z,21.23
2023-01-20T14:19:35.001Z,19.58
2023-01-20T14:22:23.972Z,13.48
2023-01-20T14:24:53.501Z,20.50
2023-01-20T14:27:23.869Z,16.73
2023-01-20T14:32:32.141Z,21.50
2023-01-20T14:35:00.245Z,19.83
2023-01-20T14:37:38.218Z,17.05
2023-01-20T14:40:34.959Z,18.85
2023-01-20T14:43:13.034Z,15.23
2023-01-20T14:45:43.849Z,23.10
2023-01-20T14:48:19.113Z,16.90
2023-01-20T14:50:54.151Z,22.80
2023-01-20T14:53:21.217Z,15.43
2023-01-20T14:56:07.802Z,18.05
2023-01-20T14:58:36.412Z,22.67
2023-01-20T15:01:06.278Z,21.88
2023-01-20T15:03:33.449Z,18.80
2023-01-20T15:06:05.808Z,18.58
2023-01-20T15:08:32.822Z,26.30
2023-01-20T15:11:18.442Z,15.68
2023-01-20T15:13:51.560Z,14.40
2023-01-20T15:16:36.816Z,21.00
2023-01-20T15:19:20.374Z,24.95
2023-01-20T15:21:57.736Z,17.30
2023-01-20T15:24:30.755Z,24.15
2023-01-20T15:27:00.597Z,13.70
2023-01-20T15:29:30.627Z,22.70
2023-01-20T15:31:59.912Z,21.75
2023-01-20T15:34:27.690Z,20.52
2023-01-20T15:36:55.839Z,19.50
2023-01-20T15:39:26.039Z,29.73
2023-01-20T15:41:57.202Z,30.77
2023-01-20T15:44:25.831Z,21.98
2023-01-20T15:46:57.143Z,17.25
2023-01-20T15:49:25.686Z,17.85
2023-01-20T15:51:53.146Z,22.52
2023-01-20T15:54:20.332Z,16.73
2023-01-20T15:56:47.438Z,18.48
2023-01-20T15:59:17.380Z,19.33
2023-01-20T16:01:50.296Z,24.50
2023-01-20T16:04:18.724Z,25.45
2023-01-20T16:06:45.968Z,28.35
2023-01-20T16:09:25.536Z,26.90
2023-01-20T16:11:53.071Z,24.77
2023-01-20T16:14:20.396Z,26.13
2023-01-20T16:16:47.401Z,17.35
2023-01-20T16:19:15.751Z,21.55
2023-01-20T16:21:45.400Z,16.50
2023-01-20T16:24:13.374Z,25.02
2023-01-20T16:26:41.064Z,23.20
2023-01-20T16:29:09.550Z,25.13
2023-01-20T16:31:36.921Z,32.47
2023-01-20T16:34:05.152Z,29.17
2023-01-20T16:36:32.144Z,18.08
2023-01-20T16:38:59.213Z,15.23
2023-01-20T16:41:31.010Z,25.90
2023-01-20T16:43:58.581Z,33.50
2023-01-20T16:46:28.251Z,28.13
2023-01-20T16:49:03.588Z,15.85
2023-01-20T16:51:31.486Z,18.05
2023-01-20T16:54:00.071Z,26.52
2023-01-20T16:56:32.495Z,30.83
2023-01-20T16:59:01.832Z,25.08
2023-01-20T17:01:30.756Z,17.90
2023-01-20T17:04:01.003Z,28.38
2023-01-20T17:06:30.788Z,22.55
2023-01-20T17:08:59.421Z,22.85
2023-01-20T17:11:28.010Z,30.83
2023-01-20T17:13:56.018Z,20.90
2023-01-20T17:16:24.303Z,21.02
2023-01-20T17:18:53.469Z,26.63
2023-01-20T17:21:22.071Z,26.98
2023-01-20T17:24:03.991Z,20.70
2023-01-20T17:26:31.821Z,20.88
2023-01-20T17:29:02.472Z,31.63
2023-01-20T17:31:32.045Z,20.02
2023-01-20T17:33:59.243Z,28.05
2023-01-20T17:36:26.405Z,21.25
2023-01-20T17:38:53.439Z,19.05
2023-01-20T17:41:20.463Z,27.70
2023-01-20T17:43:47.572Z,24.27
2023-01-20T17:46:23.412Z,20.77
2023-01-20T17:48:51.232Z,16.80
2023-01-20T17:51:23.471Z,21.85
2023-01-20T17:53:51.648Z,13.90
2023-01-20T17:56:20.630Z,22.48
2023-01-20T17:58:48.819Z,29.38
2023-01-20T18:01:27.299Z,27.77
2023-01-20T18:03:56.240Z,20.98
2023-01-20T18:06:24.666Z,23.95
2023-01-20T18:08:57.724Z,18.42
2023-01-20T18:11:27.250Z,17.63
2023-01-20T18:13:56.069Z,28.37
2023-01-20T18:16:26.802Z,27.05
2023-01-20T18:18:58.604Z,24.70
2023-01-20T18:21:33.822Z,21.65
2023-01-20T18:24:02.353Z,21.30
2023-01-20T18:26:32.573Z,20.77
2023-01-20T18:29:02.473Z,33.95
2023-01-20T18:31:32.064Z,22.83
2023-01-20T18:34:05.969Z,19.80
2023-01-20T18:36:38.764Z,31.15
2023-01-20T18:39:05.821Z,27.27
2023-01-20T18:41:36.410Z,33.78
2023-01-20T18:44:04.947Z,30.17
2023-01-20T18:46:32.567Z,31.73
2023-01-20T18:48:59.676Z,28.85
2023-01-20T18:51:29.604Z,22.88
2023-01-20T18:54:06.002Z,27.48
2023-01-20T18:56:36.104Z,31.48
2023-01-20T18:59:04.829Z,22.48
2023-01-20T19:01:34.531Z,21.27
2023-01-20T19:04:03.505Z,22.13
2023-01-20T19:06:35.262Z,31.83
2023-01-20T19:09:03.039Z,34.15
2023-01-20T19:11:36.496Z,32.05
2023-01-20T19:14:03.866Z,32.15
2023-01-20T19:16:32.750Z,32.35
2023-01-20T19:19:02.216Z,30.85
2023-01-20T19:21:33.537Z,33.08
2023-01-20T19:24:12.468Z,24.15
2023-01-20T19:26:39.523Z,33.85
2023-01-20T19:29:09.075Z,29.73
2023-01-20T19:31:40.294Z,36.03
2023-01-20T19:34:13.034Z,30.45
2023-01-20T19:36:40.078Z,27.67
2023-01-20T19:39:07.368Z,34.53
2023-01-20T19:41:34.614Z,33.88
2023-01-20T19:44:04.577Z,25.35
2023-01-20T19:46:34.174Z,37.15
2023-01-20T19:49:20.003Z,34.60
2023-01-20T19:51:48.237Z,36.25
2023-01-20T19:54:15.385Z,28.92
2023-01-20T19:56:42.473Z,28.35
2023-01-20T19:59:14.040Z,38.42
2023-01-20T20:04:14.246Z,37.47
2023-01-20T20:09:20.311Z,37.63
2023-01-20T20:11:48.712Z,38.17
2023-01-20T20:14:18.668Z,43.35
2023-01-20T20:16:46.571Z,39.10
2023-01-20T20:19:16.524Z,35.92
2023-01-20T20:21:44.315Z,39.22
2023-01-20T20:24:12.923Z,40.58
2023-01-20T20:26:40.264Z,33.75
2023-01-20T20:29:08.443Z,37.25
2023-01-20T20:31:37.749Z,29.77
2023-01-20T20:34:06.677Z,39.30
2023-01-20T20:36:33.810Z,34.45
2023-01-20T20:39:03.661Z,19.65
2023-01-20T20:41:32.082Z,34.63
2023-01-20T20:44:00.936Z,37.03
2023-01-20T20:46:29.681Z,28.50
2023-01-20T20:48:59.502Z,34.28
2023-01-20T20:51:28.277Z,28.95
2023-01-20T20:53:56.432Z,36.83
2023-01-20T20:56:24.804Z,19.80
2023-01-20T20:59:01.369Z,26.83
2023-01-20T21:01:30.615Z,29.90
2023-01-20T21:03:58.302Z,26.85
2023-01-20T21:06:26.056Z,29.55
2023-01-20T21:08:53.855Z,28.80
2023-01-20T21:11:21.810Z,30.70
2023-01-20T21:13:51.747Z,30.75
2023-01-20T21:16:22.308Z,29.33
2023-01-20T21:19:05.244Z,22.88
2023-01-20T21:22:04.786Z,17.45
2023-01-20T21:46:45.020Z,23.33
2023-01-20T21:49:31.938Z,22.98
2023-01-20T21:52:43.018Z,21.38
2023-01-20T21:55:19.875Z,22.80
2023-01-20T21:57:50.203Z,21.75
2023-01-20T22:00:18.909Z,20.35
2023-01-20T22:02:47.142Z,22.20
2023-01-20T22:05:14.243Z,21.67
2023-01-20T22:07:41.425Z,20.20
2023-01-20T22:10:09.577Z,19.65
2023-01-20T22:12:37.519Z,16.40
2023-01-20T22:15:05.331Z,20.15
2023-01-20T22:17:32.635Z,18.25
2023-01-20T22:20:00.127Z,18.02
2023-01-20T22:22:27.628Z,17.80
2023-01-20T22:24:54.962Z,22.48
2023-01-20T22:27:22.349Z,16.70
2023-01-20T22:29:49.501Z,19.10
2023-01-20T22:32:16.735Z,20.70
2023-01-20T22:34:44.100Z,18.35
2023-01-20T22:37:11.219Z,19.73
2023-01-20T22:39:38.594Z,13.82
2023-01-20T22:42:06.036Z,16.40
2023-01-20T22:44:33.331Z,17.05
2023-01-20T22:47:00.589Z,14.48
2023-01-20T22:49:30.028Z,13.85
2023-01-20T22:51:57.308Z,16.63
2023-01-20T22:54:28.445Z,18.42
2023-01-20T23:00:35.001Z,13.95
2023-01-20T23:03:09.848Z,14.07
2023-01-20T23:06:11.643Z,14.95
2023-01-20T23:08:57.164Z,15.18
2023-01-20T23:11:32.085Z,15.80
2023-01-20T23:14:00.972Z,12.50
2023-01-20T23:16:33.599Z,16.20
2023-01-20T23:19:45.835Z,11.77
2023-01-20T23:22:51.146Z,17.45
2023-01-20T23:26:08.038Z,12.82
2023-01-20T23:28:35.512Z,12.32
2023-01-20T23:31:07.914Z,12.60
2023-01-20T23:33:35.118Z,14.02
2023-01-20T23:36:05.352Z,11.65
2023-01-20T23:38:32.771Z,10.32
2023-01-20T23:41:00.348Z,12.85
2023-01-20T23:43:27.497Z,11.25
2023-01-20T23:46:02.451Z,8.88
2023-01-20T23:48:30.230Z,11.73
